createdAt,value
2023-06-05T00:00:08.496Z,43.32
2023-06-05T00:01:09.741Z,43.28
2023-06-05T00:02:08.719Z,43.34
2023-06-05T00:03:08.812Z,43.38
2023-06-05T00:04:09.960Z,43.35
2023-06-05T00:05:09.975Z,43.41
2023-06-05T00:06:08.991Z,43.38
2023-06-05T00:07:08.974Z,43.39
2023-06-05T00:08:10.149Z,43.34
2023-06-05T00:09:10.070Z,43.39
2023-06-05T00:10:10.141Z,43.35
2023-06-05T00:11:10.410Z,43.36
2023-06-05T00:12:09.225Z,43.36
2023-06-05T00:13:10.262Z,43.34
2023-06-05T00:14:09.322Z,43.38
2023-06-05T00:15:10.389Z,43.36
2023-06-05T00:16:10.513Z,43.34
2023-06-05T00:17:10.553Z,43.33
2023-06-05T00:18:09.666Z,43.39
2023-06-05T00:19:09.669Z,43.36
2023-06-05T00:20:11.447Z,43.34
2023-06-05T00:21:09.899Z,43.42
2023-06-05T00:22:10.805Z,43.40
2023-06-05T00:23:09.866Z,43.37
2023-06-05T00:24:09.964Z,43.36
2023-06-05T00:25:10.061Z,43.41
2023-06-05T00:26:10.053Z,43.36
2023-06-05T00:27:11.161Z,43.33
2023-06-05T00:28:10.230Z,43.34
2023-06-05T00:29:11.402Z,43.35
2023-06-05T00:30:11.350Z,43.36
2023-06-05T00:31:11.580Z,43.44
2023-06-05T00:32:10.427Z,43.35
2023-06-05T00:33:10.550Z,43.37
2023-06-05T00:34:11.548Z,43.42
2023-06-05T00:35:11.630Z,43.39
2023-06-05T00:36:10.600Z,43.40
2023-06-05T00:37:11.683Z,43.42
2023-06-05T00:38:10.702Z,43.39
2023-06-05T00:39:11.803Z,43.37
2023-06-05T00:40:10.778Z,43.43
2023-06-05T00:41:11.832Z,43.42
2023-06-05T00:42:10.855Z,43.39
2023-06-05T00:43:11.875Z,43.42
2023-06-05T00:44:11.898Z,43.42
2023-06-05T00:45:11.959Z,43.40
2023-06-05T00:46:10.994Z,43.39
2023-06-05T00:47:12.031Z,43.48
2023-06-05T00:48:11.043Z,43.44
2023-06-05T00:49:12.074Z,43.36
2023-06-05T00:50:11.140Z,43.40
2023-06-05T00:51:12.208Z,43.41
2023-06-05T00:52:11.409Z,43.42
2023-06-05T00:53:11.358Z,43.37
2023-06-05T00:54:12.380Z,43.40
2023-06-05T00:55:12.444Z,43.40
2023-06-05T00:56:12.488Z,43.38
2023-06-05T00:57:12.587Z,43.37
2023-06-05T00:58:11.707Z,43.44
2023-06-05T00:59:11.680Z,43.41
2023-06-05T01:00:12.695Z,43.37
2023-06-05T01:01:11.962Z,43.37
2023-06-05T01:02:11.886Z,43.41
2023-06-05T01:03:12.089Z,43.42
2023-06-05T01:04:11.966Z,43.43
2023-06-05T01:05:13.030Z,43.41
2023-06-05T01:06:13.082Z,43.52
2023-06-05T01:07:12.173Z,43.40
2023-06-05T01:08:12.207Z,43.45
2023-06-05T01:09:12.280Z,43.42
2023-06-05T01:10:13.338Z,43.48
2023-06-05T01:11:13.397Z,43.43
2023-06-05T01:12:13.472Z,43.49
2023-06-05T01:13:13.520Z,43.42
2023-06-05T01:14:12.603Z,43.45
2023-06-05T01:15:12.680Z,43.39
2023-06-05T01:16:13.715Z,43.43
2023-06-05T01:17:12.900Z,43.43
2023-06-05T01:18:13.866Z,43.43
2023-06-05T01:19:12.925Z,43.41
2023-06-05T01:20:13.021Z,43.40
2023-06-05T01:21:13.067Z,43.42
2023-06-05T01:22:14.111Z,43.41
2023-06-05T01:23:14.178Z,43.45
2023-06-05T01:24:13.255Z,43.42
2023-06-05T01:25:14.308Z,43.39
2023-06-05T01:26:14.420Z,43.39
2023-06-05T01:27:14.419Z,43.45
2023-06-05T01:28:13.487Z,43.45
2023-06-05T01:29:14.542Z,43.42
2023-06-05T01:30:14.582Z,43.39
2023-06-05T01:31:13.653Z,43.37
2023-06-05T01:32:14.678Z,43.43
2023-06-05T01:33:13.856Z,43.43
2023-06-05T01:34:14.790Z,43.48
2023-06-05T01:35:14.853Z,43.50
2023-06-05T01:36:14.931Z,43.49
2023-06-05T01:37:14.972Z,43.46
2023-06-05T01:38:14.047Z,43.45
2023-06-05T01:39:14.127Z,43.45
2023-06-05T01:40:14.097Z,43.46
2023-06-05T01:41:14.147Z,43.42
2023-06-05T01:42:14.171Z,43.43
2023-06-05T01:43:14.251Z,43.48
2023-06-05T01:44:14.273Z,43.43
2023-06-05T01:45:14.244Z,43.44
2023-06-05T01:46:14.308Z,43.44
2023-06-05T01:47:15.272Z,43.49
2023-06-05T01:48:15.279Z,43.43
2023-06-05T01:49:14.321Z,43.48
2023-06-05T01:50:14.394Z,43.44
2023-06-05T01:51:14.313Z,43.37
2023-06-05T01:52:15.357Z,43.39
2023-06-05T01:53:15.370Z,43.37
2023-06-05T01:54:14.388Z,43.51
2023-06-05T01:55:15.393Z,43.49
2023-06-05T01:56:14.479Z,43.42
2023-06-05T01:57:15.579Z,43.46
2023-06-05T01:58:14.560Z,43.37
2023-06-05T01:59:15.663Z,43.45
2023-06-05T02:00:15.685Z,43.42
2023-06-05T02:01:15.748Z,43.41
2023-06-05T02:02:15.910Z,43.54
2023-06-05T02:03:15.935Z,43.48
2023-06-05T02:04:14.869Z,43.54
2023-06-05T02:05:14.965Z,43.50
2023-06-05T02:06:14.991Z,43.48
2023-06-05T02:07:15.066Z,43.45
2023-06-05T02:08:16.186Z,43.50
2023-06-05T02:09:15.148Z,43.44
2023-06-05T02:10:16.217Z,43.46
2023-06-05T02:11:16.230Z,43.44
2023-06-05T02:12:15.302Z,43.47
2023-06-05T02:13:15.316Z,43.47
2023-06-05T02:14:15.316Z,43.47
2023-06-05T02:15:16.648Z,43.49
2023-06-05T02:16:16.470Z,43.51
2023-06-05T02:17:15.444Z,43.50
2023-06-05T02:18:15.504Z,43.48
2023-06-05T02:19:16.520Z,43.44
2023-06-05T02:20:16.547Z,43.46
2023-06-05T02:21:15.609Z,43.45
2023-06-05T02:22:15.628Z,43.49
2023-06-05T02:23:15.674Z,43.51
2023-06-05T02:24:16.728Z,43.50
2023-06-05T02:25:16.749Z,43.48
2023-06-05T02:26:15.778Z,43.42
2023-06-05T02:27:15.822Z,43.47
2023-06-05T02:28:15.869Z,43.45
2023-06-05T02:29:16.888Z,43.42
2023-06-05T02:30:16.933Z,43.39
2023-06-05T02:31:15.952Z,43.47
2023-06-05T02:32:16.952Z,43.46
2023-06-05T02:33:16.925Z,43.48
2023-06-05T02:34:16.933Z,43.50
2023-06-05T02:35:15.978Z,43.48
2023-06-05T02:36:16.942Z,43.50
2023-06-05T02:37:15.951Z,43.46
2023-06-05T02:38:16.995Z,43.48
2023-06-05T02:39:17.005Z,43.48
2023-06-05T02:40:16.028Z,43.46
2023-06-05T02:41:17.051Z,43.43
2023-06-05T02:42:16.049Z,43.47
2023-06-05T02:43:17.069Z,43.43
2023-06-05T02:44:16.140Z,43.48
2023-06-05T02:45:17.175Z,43.49
2023-06-05T02:46:16.252Z,43.51
2023-06-05T02:47:17.219Z,43.46
2023-06-05T02:48:17.223Z,43.46
2023-06-05T02:49:16.235Z,43.46
2023-06-05T02:50:16.261Z,43.50
2023-06-05T02:51:16.299Z,43.50
2023-06-05T02:52:17.274Z,43.52
2023-06-05T02:53:17.259Z,43.51
2023-06-05T02:54:16.250Z,43.45
2023-06-05T02:55:16.258Z,43.44
2023-06-05T02:56:16.250Z,43.46
2023-06-05T02:57:16.272Z,43.48
2023-06-05T02:58:17.266Z,43.49
2023-06-05T02:59:17.248Z,43.51
2023-06-05T03:00:16.254Z,43.53
2023-06-05T03:01:17.265Z,43.47
2023-06-05T03:02:17.283Z,43.47
2023-06-05T03:03:17.331Z,43.51
2023-06-05T03:04:16.268Z,43.48
2023-06-05T03:05:16.277Z,43.51
2023-06-05T03:06:17.254Z,43.50
2023-06-05T03:07:16.247Z,43.49
2023-06-05T03:08:16.247Z,43.50
2023-06-05T03:09:17.262Z,43.54
2023-06-05T03:10:17.289Z,43.47
2023-06-05T03:11:16.276Z,43.53
2023-06-05T03:12:17.282Z,43.49
2023-06-05T03:13:17.269Z,43.49
2023-06-05T03:14:16.277Z,43.48
2023-06-05T03:15:16.292Z,43.52
2023-06-05T03:16:17.387Z,43.46
2023-06-05T03:17:17.299Z,43.40
2023-06-05T03:18:17.305Z,43.51
2023-06-05T03:19:16.306Z,43.50
2023-06-05T03:20:17.325Z,43.47
2023-06-05T03:21:16.297Z,43.50
2023-06-05T03:22:17.293Z,43.47
2023-06-05T03:23:16.324Z,43.51
2023-06-05T03:24:17.376Z,43.50
2023-06-05T03:25:17.380Z,43.52
2023-06-05T03:26:16.424Z,43.53
2023-06-05T03:27:16.422Z,43.50
2023-06-05T03:28:16.350Z,43.54
2023-06-05T03:29:17.332Z,43.49
2023-06-05T03:30:16.332Z,43.53
2023-06-05T03:31:16.322Z,43.44
2023-06-05T03:32:16.302Z,43.46
2023-06-05T03:33:17.394Z,43.45
2023-06-05T03:34:17.323Z,43.49
2023-06-05T03:35:17.323Z,43.52
2023-06-05T03:36:17.298Z,43.46
2023-06-05T03:37:17.289Z,43.51
2023-06-05T03:38:17.299Z,43.50
2023-06-05T03:39:16.301Z,43.48
2023-06-05T03:40:16.339Z,43.57
2023-06-05T03:41:16.283Z,43.47
2023-06-05T03:42:17.281Z,43.48
2023-06-05T03:43:17.293Z,43.50
2023-06-05T03:44:17.280Z,43.57
2023-06-05T03:45:16.269Z,43.51
2023-06-05T03:46:16.306Z,43.52
2023-06-05T03:47:17.312Z,43.50
2023-06-05T03:48:17.328Z,43.46
2023-06-05T03:49:17.259Z,43.46
2023-06-05T03:50:17.322Z,43.45
2023-06-05T03:51:17.276Z,43.50
2023-06-05T03:52:16.319Z,43.52
2023-06-05T03:53:16.263Z,43.52
2023-06-05T03:54:17.233Z,43.44
2023-06-05T03:55:17.251Z,43.52
2023-06-05T03:56:16.241Z,43.58
2023-06-05T03:57:17.210Z,43.51
2023-06-05T03:58:16.261Z,43.48
2023-06-05T03:59:16.242Z,43.47
2023-06-05T04:00:16.211Z,43.49
2023-06-05T04:01:16.208Z,43.52
2023-06-05T04:02:16.244Z,43.52
2023-06-05T04:03:16.308Z,43.50
2023-06-05T04:04:16.303Z,43.53
2023-06-05T04:05:17.245Z,43.53
2023-06-05T04:06:16.214Z,43.56
2023-06-05T04:07:16.216Z,43.55
2023-06-05T04:08:17.222Z,43.52
2023-06-05T04:09:17.222Z,43.47
2023-06-05T04:10:17.212Z,43.55
2023-06-05T04:11:16.219Z,43.56
2023-06-05T04:12:16.201Z,43.46
2023-06-05T04:13:16.214Z,43.57
2023-06-05T04:14:16.206Z,43.53
2023-06-05T04:15:16.229Z,43.53
2023-06-05T04:16:17.246Z,43.50
2023-06-05T04:17:17.271Z,43.52
2023-06-05T04:18:17.837Z,43.53
2023-06-05T04:19:17.241Z,43.59
2023-06-05T04:20:16.288Z,43.54
2023-06-05T04:21:17.247Z,43.54
2023-06-05T04:22:16.255Z,43.47
2023-06-05T04:23:17.279Z,43.54
2023-06-05T04:24:16.260Z,43.44
2023-06-05T04:25:16.276Z,43.55
2023-06-05T04:26:17.283Z,43.53
2023-06-05T04:27:17.297Z,43.55
2023-06-05T04:28:16.299Z,43.53
2023-06-05T04:29:17.294Z,43.58
2023-06-05T04:30:17.292Z,43.49
2023-06-05T04:31:16.351Z,43.54
2023-06-05T04:32:16.312Z,43.54
2023-06-05T04:33:17.317Z,43.50
2023-06-05T04:34:17.305Z,43.48
2023-06-05T04:35:17.324Z,43.50
2023-06-05T04:36:17.343Z,43.55
2023-06-05T04:37:16.312Z,43.51
2023-06-05T04:38:17.346Z,43.50
2023-06-05T04:39:17.345Z,43.50
2023-06-05T04:40:17.366Z,43.48
2023-06-05T04:41:17.359Z,43.49
2023-06-05T04:42:17.368Z,43.46
2023-06-05T04:43:16.358Z,43.55
2023-06-05T04:44:16.369Z,43.51
2023-06-05T04:45:16.380Z,43.51
2023-06-05T04:46:16.430Z,43.52
2023-06-05T04:47:17.398Z,43.53
2023-06-05T04:48:17.410Z,43.49
2023-06-05T04:49:17.447Z,43.49
2023-06-05T04:50:16.406Z,43.50
2023-06-05T04:51:17.423Z,43.46
2023-06-05T04:52:16.486Z,43.47
2023-06-05T04:53:17.434Z,43.45
2023-06-05T04:54:17.459Z,43.45
2023-06-05T04:55:17.471Z,43.43
2023-06-05T04:56:17.469Z,43.43
2023-06-05T04:57:16.494Z,43.52
2023-06-05T04:58:17.123Z,43.50
2023-06-05T04:59:17.511Z,43.50
2023-06-05T05:00:17.502Z,43.54
2023-06-05T05:01:16.560Z,43.58
2023-06-05T05:02:17.619Z,43.52
2023-06-05T05:03:16.553Z,43.44
2023-06-05T05:04:16.574Z,43.46
2023-06-05T05:05:17.593Z,43.48
2023-06-05T05:06:16.612Z,43.49
2023-06-05T05:07:16.743Z,43.42
2023-06-05T05:08:16.605Z,43.44
2023-06-05T05:09:17.623Z,43.38
2023-06-05T05:10:17.597Z,43.40
2023-06-05T05:11:17.569Z,43.38
2023-06-05T05:12:16.556Z,43.34
2023-06-05T05:13:17.573Z,43.39
2023-06-05T05:14:17.580Z,43.42
2023-06-05T05:15:17.569Z,43.35
2023-06-05T05:16:17.577Z,43.34
2023-06-05T05:17:17.540Z,43.35
2023-06-05T05:18:17.535Z,43.29
2023-06-05T05:19:17.525Z,43.32
2023-06-05T05:20:17.524Z,43.29
2023-06-05T05:21:16.606Z,43.27
2023-06-05T05:22:17.560Z,43.33
2023-06-05T05:23:18.710Z,43.32
2023-06-05T05:24:17.528Z,43.35
2023-06-05T05:25:16.549Z,43.31
2023-06-05T05:26:16.540Z,43.29
2023-06-05T05:27:17.582Z,43.31
2023-06-05T05:28:16.531Z,43.31
2023-06-05T05:29:16.538Z,43.29
2023-06-05T05:30:16.566Z,43.26
2023-06-05T05:31:16.594Z,43.33
2023-06-05T05:32:16.644Z,43.14
2023-06-05T05:33:16.632Z,43.20
2023-06-05T05:34:17.613Z,42.97
2023-06-05T05:35:16.663Z,43.02
2023-06-05T05:36:16.645Z,42.93
2023-06-05T05:37:17.649Z,42.92
2023-06-05T05:38:16.638Z,42.88
2023-06-05T05:39:16.677Z,42.96
2023-06-05T05:40:17.674Z,43.00
2023-06-05T05:41:17.635Z,42.90
2023-06-05T05:42:16.674Z,42.85
2023-06-05T05:43:17.656Z,43.12
2023-06-05T05:44:17.899Z,43.37
2023-06-05T05:45:17.645Z,43.14
2023-06-05T05:46:17.757Z,42.99
2023-06-05T05:47:16.695Z,42.88
2023-06-05T05:48:16.688Z,42.85
2023-06-05T05:49:17.791Z,43.26
2023-06-05T05:50:17.792Z,43.40
2023-06-05T05:51:17.770Z,43.77
2023-06-05T05:52:17.752Z,44.09
2023-06-05T05:53:16.837Z,44.35
2023-06-05T05:54:16.860Z,44.46
2023-06-05T05:55:17.954Z,44.63
2023-06-05T05:56:17.939Z,44.79
2023-06-05T05:57:16.943Z,45.76
2023-06-05T05:58:17.001Z,46.23
2023-06-05T05:59:18.015Z,45.32
2023-06-05T06:00:18.165Z,46.38
2023-06-05T06:01:18.136Z,46.29
2023-06-05T06:02:17.408Z,46.42
2023-06-05T06:03:18.259Z,46.56
2023-06-05T06:04:17.425Z,46.23
2023-06-05T06:05:18.253Z,46.08
2023-06-05T06:06:17.243Z,45.92
2023-06-05T06:07:18.512Z,45.62
2023-06-05T06:08:18.254Z,45.37
2023-06-05T06:09:18.261Z,45.20
2023-06-05T06:10:18.344Z,44.92
2023-06-05T06:11:18.786Z,44.74
2023-06-05T06:12:18.583Z,44.51
2023-06-05T06:13:18.452Z,44.45
2023-06-05T06:14:18.529Z,44.09
2023-06-05T06:15:18.575Z,44.04
2023-06-05T06:16:17.659Z,44.01
2023-06-05T06:17:18.614Z,44.09
2023-06-05T06:18:18.546Z,43.94
2023-06-05T06:19:18.632Z,44.12
2023-06-05T06:20:17.555Z,44.28
2023-06-05T06:21:17.562Z,44.44
2023-06-05T06:22:18.666Z,44.56
2023-06-05T06:23:18.622Z,44.43
2023-06-05T06:24:17.586Z,44.64
2023-06-05T06:25:18.585Z,44.33
2023-06-05T06:26:17.570Z,44.58
2023-06-05T06:27:34.083Z,44.29
2023-06-05T06:28:18.595Z,44.53
2023-06-05T06:29:18.613Z,44.67
2023-06-05T06:30:17.637Z,44.58
2023-06-05T06:31:18.651Z,44.48
2023-06-05T06:32:17.570Z,44.33
2023-06-05T06:33:17.582Z,44.74
2023-06-05T06:34:17.549Z,44.26
2023-06-05T06:35:18.569Z,44.82
2023-06-05T06:36:17.549Z,44.75
2023-06-05T06:37:18.562Z,44.47
2023-06-05T06:38:18.550Z,44.30
2023-06-05T06:39:17.550Z,44.62
2023-06-05T06:40:18.515Z,44.67
2023-06-05T06:41:17.544Z,44.83
2023-06-05T06:42:18.517Z,44.83
2023-06-05T06:43:18.539Z,45.07
2023-06-05T06:44:18.548Z,45.05
2023-06-05T06:45:18.612Z,44.47
2023-06-05T06:46:18.511Z,45.00
2023-06-05T06:47:18.489Z,44.79
2023-06-05T06:48:18.538Z,44.90
2023-06-05T06:49:17.535Z,44.91
2023-06-05T06:50:18.469Z,44.65
2023-06-05T06:51:18.504Z,44.94
2023-06-05T06:52:18.463Z,45.43
2023-06-05T06:53:17.445Z,45.37
2023-06-05T06:54:17.456Z,45.03
2023-06-05T06:55:17.472Z,44.97
2023-06-05T06:56:17.894Z,45.66
2023-06-05T06:57:18.734Z,46.91
2023-06-05T06:58:18.614Z,46.03
2023-06-05T06:59:17.715Z,46.10
2023-06-05T07:00:18.671Z,45.82
2023-06-05T07:01:17.962Z,45.74
2023-06-05T07:02:17.761Z,45.70
2023-06-05T07:03:19.206Z,45.79
2023-06-05T07:04:18.772Z,45.66
2023-06-05T07:05:17.862Z,45.38
2023-06-05T07:06:17.924Z,45.05
2023-06-05T07:07:18.959Z,45.18
2023-06-05T07:08:19.038Z,45.22
2023-06-05T07:09:19.002Z,44.19
2023-06-05T07:10:18.164Z,43.74
2023-06-05T07:11:19.304Z,43.52
2023-06-05T07:12:19.154Z,43.54
2023-06-05T07:13:18.125Z,43.93
2023-06-05T07:14:18.405Z,43.45
2023-06-05T07:15:19.427Z,43.13
2023-06-05T07:16:19.212Z,42.74
2023-06-05T07:17:18.218Z,44.10
2023-06-05T07:18:19.214Z,43.16
2023-06-05T07:19:19.178Z,43.44
2023-06-05T07:20:19.240Z,44.27
2023-06-05T07:21:19.241Z,44.36
2023-06-05T07:22:19.231Z,44.28
2023-06-05T07:23:21.401Z,44.40
2023-06-05T07:24:18.243Z,44.31
2023-06-05T07:25:19.398Z,44.26
2023-06-05T07:26:19.415Z,44.38
2023-06-05T07:27:19.241Z,44.41
2023-06-05T07:28:18.398Z,44.46
2023-06-05T07:29:19.328Z,44.25
2023-06-05T07:30:19.215Z,44.51
2023-06-05T07:31:19.348Z,44.43
2023-06-05T07:32:18.244Z,44.20
2023-06-05T07:33:29.792Z,43.91
2023-06-05T07:34:19.222Z,44.32
2023-06-05T07:35:19.201Z,44.45
2023-06-05T07:36:19.189Z,44.69
2023-06-05T07:37:19.486Z,44.53
2023-06-05T07:38:18.147Z,44.32
2023-06-05T07:39:19.359Z,44.58
2023-06-05T07:40:19.146Z,44.10
2023-06-05T07:41:18.845Z,45.20
2023-06-05T07:42:19.189Z,44.85
2023-06-05T07:43:19.210Z,44.91
2023-06-05T07:44:19.110Z,44.79
2023-06-05T07:45:19.185Z,44.84
2023-06-05T07:46:19.185Z,45.16
2023-06-05T07:47:18.115Z,44.59
2023-06-05T07:48:19.795Z,44.76
2023-06-05T07:49:19.080Z,45.28
2023-06-05T07:50:19.346Z,45.27
2023-06-05T07:51:19.153Z,45.33
2023-06-05T07:52:19.402Z,45.30
2023-06-05T07:53:20.965Z,45.78
2023-06-05T07:54:18.344Z,45.83
2023-06-05T07:55:19.028Z,45.45
2023-06-05T07:56:18.257Z,45.36
2023-06-05T07:57:19.107Z,45.44
2023-06-05T07:58:19.032Z,44.89
2023-06-05T07:59:19.014Z,45.21
2023-06-05T08:00:19.003Z,45.11
2023-06-05T08:01:18.096Z,45.03
2023-06-05T08:02:19.253Z,44.96
2023-06-05T08:03:19.630Z,44.93
2023-06-05T08:04:19.098Z,44.95
2023-06-05T08:05:17.951Z,44.88
2023-06-05T08:06:18.974Z,44.98
2023-06-05T08:07:19.052Z,44.74
2023-06-05T08:08:18.996Z,45.25
2023-06-05T08:09:18.927Z,45.31
2023-06-05T08:10:18.918Z,45.43
2023-06-05T08:11:18.911Z,45.19
2023-06-05T08:12:17.966Z,45.38
2023-06-05T08:13:18.964Z,45.60
2023-06-05T08:14:18.934Z,45.29
2023-06-05T08:15:17.915Z,45.07
2023-06-05T08:16:18.031Z,45.33
2023-06-05T08:17:18.103Z,45.09
2023-06-05T08:18:19.066Z,45.45
2023-06-05T08:19:18.151Z,45.41
2023-06-05T08:20:19.475Z,46.26
2023-06-05T08:21:19.261Z,46.13
2023-06-05T08:22:19.283Z,45.36
2023-06-05T08:23:19.323Z,45.38
2023-06-05T08:24:19.332Z,45.45
2023-06-05T08:25:19.407Z,46.13
2023-06-05T08:26:19.417Z,45.31
2023-06-05T08:27:19.421Z,45.49
2023-06-05T08:28:19.533Z,45.10
2023-06-05T08:29:19.729Z,45.31
2023-06-05T08:30:18.525Z,45.74
2023-06-05T08:31:19.622Z,46.01
2023-06-05T08:32:19.609Z,46.10
2023-06-05T08:33:20.554Z,45.80
2023-06-05T08:34:18.633Z,46.61
2023-06-05T08:35:19.685Z,46.29
2023-06-05T08:36:19.771Z,46.37
2023-06-05T08:37:19.732Z,45.48
2023-06-05T08:38:19.736Z,45.55
2023-06-05T08:39:18.770Z,45.80
2023-06-05T08:40:18.780Z,46.08
2023-06-05T08:41:19.943Z,45.76
2023-06-05T08:42:20.539Z,46.09
2023-06-05T08:43:18.918Z,44.39
2023-06-05T08:44:19.953Z,46.05
2023-06-05T08:45:19.950Z,45.41
2023-06-05T08:46:20.028Z,45.13
2023-06-05T08:47:20.191Z,45.26
2023-06-05T08:48:20.181Z,44.72
2023-06-05T08:49:20.128Z,44.31
2023-06-05T08:50:20.280Z,45.91
2023-06-05T08:51:19.138Z,45.29
2023-06-05T08:52:19.167Z,46.98
2023-06-05T08:53:21.846Z,46.18
2023-06-05T08:54:19.266Z,47.06
2023-06-05T08:55:19.152Z,45.73
2023-06-05T08:56:19.178Z,45.38
2023-06-05T08:57:19.951Z,44.80
2023-06-05T08:58:20.128Z,45.55
2023-06-05T08:59:20.171Z,45.44
2023-06-05T09:00:20.214Z,45.50
2023-06-05T09:01:20.143Z,45.34
2023-06-05T09:02:20.157Z,45.08
2023-06-05T09:03:20.095Z,44.81
2023-06-05T09:04:20.095Z,44.90
2023-06-05T09:05:20.183Z,44.96
2023-06-05T09:06:20.104Z,44.79
2023-06-05T09:07:20.072Z,44.31
2023-06-05T09:08:19.138Z,44.58
2023-06-05T09:09:20.038Z,44.55
2023-06-05T09:10:20.043Z,44.56
2023-06-05T09:11:20.045Z,44.50
2023-06-05T09:12:20.110Z,44.20
2023-06-05T09:13:20.031Z,44.31
2023-06-05T09:14:20.019Z,44.26
2023-06-05T09:15:20.037Z,44.85
2023-06-05T09:16:20.194Z,44.67
2023-06-05T09:17:19.985Z,44.78
2023-06-05T09:18:18.989Z,44.60
2023-06-05T09:19:19.976Z,45.16
2023-06-05T09:20:19.993Z,44.51
2023-06-05T09:21:19.979Z,45.02
2023-06-05T09:22:19.976Z,44.24
2023-06-05T09:24:20.073Z,44.76
2023-06-05T09:25:19.959Z,44.51
2023-06-05T09:26:21.295Z,44.56
2023-06-05T09:27:18.941Z,44.88
2023-06-05T09:28:19.963Z,44.57
2023-06-05T09:29:20.039Z,43.93
2023-06-05T09:30:19.987Z,44.23
2023-06-05T09:31:20.111Z,44.80
2023-06-05T09:32:20.131Z,44.94
2023-06-05T09:33:20.154Z,44.13
2023-06-05T09:34:20.166Z,44.28
2023-06-05T09:35:20.320Z,44.05
2023-06-05T09:36:20.240Z,43.97
2023-06-05T09:37:20.301Z,43.71
2023-06-05T09:38:20.443Z,44.17
2023-06-05T09:39:20.343Z,44.29
2023-06-05T09:40:20.391Z,44.51
2023-06-05T09:41:19.387Z,44.34
2023-06-05T09:42:20.464Z,44.04
2023-06-05T09:43:19.638Z,44.35
2023-06-05T09:44:20.549Z,44.26
2023-06-05T09:45:20.577Z,43.66
2023-06-05T09:46:20.673Z,43.20
2023-06-05T09:47:22.576Z,43.17
2023-06-05T09:48:20.869Z,43.13
2023-06-05T09:49:20.635Z,43.20
2023-06-05T09:50:20.693Z,43.27
2023-06-05T09:51:19.805Z,43.93
2023-06-05T09:52:20.978Z,44.08
2023-06-05T09:53:20.881Z,44.13
2023-06-05T09:54:20.598Z,43.85
2023-06-05T09:55:20.617Z,44.90
2023-06-05T09:56:20.568Z,43.71
2023-06-05T09:57:19.570Z,44.07
2023-06-05T09:58:20.551Z,43.87
2023-06-05T09:59:19.604Z,44.37
2023-06-05T10:00:20.129Z,43.70
2023-06-05T10:01:20.618Z,43.33
2023-06-05T10:02:19.546Z,42.96
2023-06-05T10:03:20.530Z,43.27
2023-06-05T10:04:20.518Z,42.57
2023-06-05T10:05:19.955Z,42.46
2023-06-05T10:06:20.770Z,42.72
2023-06-05T10:07:20.561Z,44.36
2023-06-05T10:08:19.520Z,43.39
2023-06-05T10:09:20.488Z,44.37
2023-06-05T10:10:20.575Z,43.39
2023-06-05T10:11:20.648Z,42.91
2023-06-05T10:12:20.864Z,44.00
2023-06-05T10:13:20.064Z,43.54
2023-06-05T10:14:20.836Z,43.58
2023-06-05T10:15:20.842Z,42.98
2023-06-05T10:16:26.227Z,43.17
2023-06-05T10:17:21.023Z,43.08
2023-06-05T10:18:20.898Z,42.79
2023-06-05T10:19:20.890Z,42.79
2023-06-05T10:20:20.942Z,42.96
2023-06-05T10:21:19.949Z,43.39
2023-06-05T10:22:19.951Z,43.64
2023-06-05T10:23:20.099Z,42.83
2023-06-05T10:24:19.885Z,43.75
2023-06-05T10:25:19.858Z,43.30
2023-06-05T10:26:19.872Z,43.17
2023-06-05T10:27:20.866Z,43.31
2023-06-05T10:28:20.840Z,44.18
2023-06-05T10:29:20.840Z,43.35
2023-06-05T10:30:19.828Z,43.59
2023-06-05T10:31:20.901Z,42.88
2023-06-05T10:32:19.846Z,44.20
2023-06-05T10:33:20.120Z,43.52
2023-06-05T10:34:19.809Z,44.24
2023-06-05T10:35:20.806Z,44.28
2023-06-05T10:36:20.834Z,43.88
2023-06-05T10:37:19.847Z,43.71
2023-06-05T10:38:20.758Z,43.57
2023-06-05T10:39:19.946Z,43.71
2023-06-05T10:40:20.956Z,45.01
2023-06-05T10:41:20.961Z,44.57
2023-06-05T10:42:21.553Z,44.60
2023-06-05T10:43:21.095Z,44.40
2023-06-05T10:44:21.132Z,44.47
2023-06-05T10:45:21.228Z,44.36
2023-06-05T10:46:21.310Z,44.63
2023-06-05T10:47:20.557Z,44.47
2023-06-05T10:48:20.397Z,44.38
2023-06-05T10:49:21.658Z,44.34
2023-06-05T10:50:20.733Z,44.54
2023-06-05T10:51:20.591Z,44.55
2023-06-05T10:52:20.651Z,44.58
2023-06-05T10:53:20.700Z,44.78
2023-06-05T10:54:21.763Z,44.66
2023-06-05T10:55:20.807Z,44.68
2023-06-05T10:56:20.865Z,44.70
2023-06-05T10:57:21.914Z,44.53
2023-06-05T10:58:20.913Z,44.66
2023-06-05T10:59:20.964Z,44.58
2023-06-05T11:00:21.991Z,44.65
2023-06-05T11:01:21.207Z,44.67
2023-06-05T11:02:22.099Z,44.69
2023-06-05T11:03:22.065Z,44.74
2023-06-05T11:04:22.127Z,44.60
2023-06-05T11:05:21.073Z,44.70
2023-06-05T11:06:22.081Z,44.56
2023-06-05T11:07:21.114Z,44.63
2023-06-05T11:08:22.166Z,44.58
2023-06-05T11:09:21.227Z,44.58
2023-06-05T11:10:21.256Z,44.70
2023-06-05T11:11:21.264Z,44.64
2023-06-05T11:12:21.272Z,44.65
2023-06-05T11:13:22.329Z,44.66
2023-06-05T11:14:22.313Z,44.68
2023-06-05T11:15:21.317Z,44.68
2023-06-05T11:16:22.412Z,44.62
2023-06-05T11:17:22.345Z,44.66
2023-06-05T11:18:22.316Z,44.70
2023-06-05T11:19:21.304Z,44.75
2023-06-05T11:20:21.296Z,44.76
2023-06-05T11:21:22.369Z,44.77
2023-06-05T11:22:21.294Z,44.60
2023-06-05T11:23:22.333Z,44.76
2023-06-05T11:24:21.291Z,44.62
2023-06-05T11:25:21.258Z,44.76
2023-06-05T11:26:22.258Z,44.66
2023-06-05T11:27:22.268Z,44.62
2023-06-05T11:28:22.288Z,44.54
2023-06-05T11:29:22.290Z,44.54
2023-06-05T11:30:34.944Z,44.60
2023-06-05T11:31:22.830Z,44.62
2023-06-05T11:32:22.353Z,44.61
2023-06-05T11:33:22.945Z,44.72
2023-06-05T11:34:21.293Z,44.78
2023-06-05T11:35:21.283Z,44.69
2023-06-05T11:36:21.254Z,44.67
2023-06-05T11:37:22.279Z,44.55
2023-06-05T11:38:23.641Z,44.74
2023-06-05T11:39:21.296Z,44.65
2023-06-05T11:40:22.256Z,44.66
2023-06-05T11:41:22.238Z,44.70
2023-06-05T11:42:22.221Z,44.80
2023-06-05T11:43:21.242Z,44.77
2023-06-05T11:44:21.213Z,44.70
2023-06-05T11:45:22.220Z,44.80
2023-06-05T11:46:22.241Z,44.68
2023-06-05T11:47:22.218Z,44.72
2023-06-05T11:48:22.191Z,44.81
2023-06-05T11:49:22.190Z,44.73
2023-06-05T11:50:21.166Z,44.73
2023-06-05T11:51:22.171Z,44.74
2023-06-05T11:52:22.182Z,44.80
2023-06-05T11:53:22.157Z,44.80
2023-06-05T11:54:22.141Z,44.74
2023-06-05T11:55:22.144Z,44.73
2023-06-05T11:56:21.139Z,44.79
2023-06-05T11:57:21.123Z,44.76
2023-06-05T11:58:22.175Z,44.75
2023-06-05T11:59:22.168Z,44.76
2023-06-05T12:00:22.133Z,44.73
2023-06-05T12:01:22.107Z,44.82
2023-06-05T12:02:21.120Z,44.74
2023-06-05T12:03:21.191Z,44.69
2023-06-05T12:04:21.239Z,44.70
2023-06-05T12:05:21.086Z,44.79
2023-06-05T12:06:21.073Z,44.81
2023-06-05T12:07:21.087Z,44.74
2023-06-05T12:08:21.115Z,44.71
2023-06-05T12:09:21.071Z,44.75
2023-06-05T12:10:21.079Z,44.70
2023-06-05T12:11:22.039Z,44.68
2023-06-05T12:12:21.043Z,44.66
2023-06-05T12:13:22.058Z,44.79
2023-06-05T12:14:22.052Z,44.75
2023-06-05T12:15:22.029Z,44.72
2023-06-05T12:16:22.044Z,44.76
2023-06-05T12:17:22.009Z,44.64
2023-06-05T12:18:21.031Z,44.74
2023-06-05T12:19:22.098Z,44.75
2023-06-05T12:20:20.968Z,44.73
2023-06-05T12:21:22.048Z,44.79
2023-06-05T12:22:22.024Z,44.67
2023-06-05T12:23:22.004Z,44.73
2023-06-05T12:24:21.969Z,44.76
2023-06-05T12:25:21.638Z,44.75
2023-06-05T12:26:20.959Z,44.80
2023-06-05T12:27:21.937Z,44.75
2023-06-05T12:28:20.927Z,44.71
2023-06-05T12:29:20.939Z,44.76
2023-06-05T12:30:21.927Z,44.78
2023-06-05T12:31:21.959Z,44.80
2023-06-05T12:32:21.977Z,44.69
2023-06-05T12:33:21.893Z,44.73
2023-06-05T12:34:21.895Z,44.77
2023-06-05T12:35:20.904Z,44.75
2023-06-05T12:36:20.882Z,44.73
2023-06-05T12:37:20.876Z,44.69
2023-06-05T12:38:20.894Z,44.65
2023-06-05T12:39:21.877Z,44.84
2023-06-05T12:40:34.913Z,44.75
2023-06-05T12:41:21.860Z,44.82
2023-06-05T12:42:20.857Z,44.85
2023-06-05T12:43:20.849Z,44.71
2023-06-05T12:44:21.854Z,44.79
2023-06-05T12:45:20.840Z,44.89
2023-06-05T12:46:21.873Z,45.04
2023-06-05T12:47:20.960Z,45.17
2023-06-05T12:48:21.802Z,44.98
2023-06-05T12:49:21.792Z,44.89
2023-06-05T12:50:21.783Z,44.86
2023-06-05T12:51:21.792Z,44.78
2023-06-05T12:52:20.769Z,44.85
2023-06-05T12:53:20.780Z,44.80